sensor_id;sensor_type;location;lat;lon;timestamp;P1;durP1;ratioP1;P2;durP2;ratioP2
75087;SDS011;63664;44.868;40.600;2023-02-23T00:02:21;13.77;;;7.38;;
75087;SDS011;63664;44.868;40.600;2023-02-23T00:04:51;16.70;;;7.45;;
75087;SDS011;63664;44.868;40.600;2023-02-23T00:07:20;17.50;;;7.15;;
75087;SDS011;63664;44.868;40.600;2023-02-23T00:09:51;18.45;;;8.50;;
75087;SDS011;63664;44.868;40.600;2023-02-23T00:12:21;15.77;;;7.80;;
75087;SDS011;63664;44.868;40.600;2023-02-23T00:14:51;12.68;;;7.28;;
75087;SDS011;63664;44.868;40.600;2023-02-23T00:17:17;17.98;;;7.80;;
75087;SDS011;63664;44.868;40.600;2023-02-23T00:19:52;14.27;;;7.63;;
75087;SDS011;63664;44.868;40.600;2023-02-23T00:22:23;21.48;;;9.20;;
75087;SDS011;63664;44.868;40.600;2023-02-23T00:24:55;31.20;;;13.27;;
75087;SDS011;63664;44.868;40.600;2023-02-23T00:27:21;18.48;;;8.82;;
75087;SDS011;63664;44.868;40.600;2023-02-23T00:29:56;19.13;;;8.63;;
75087;SDS011;63664;44.868;40.600;2023-02-23T00:32:25;14.50;;;7.32;;
75087;SDS011;63664;44.868;40.600;2023-02-23T00:34:54;21.15;;;8.52;;
75087;SDS011;63664;44.868;40.600;2023-02-23T00:37:23;33.63;;;11.32;;
75087;SDS011;63664;44.868;40.600;2023-02-23T00:39:49;18.90;;;8.85;;
75087;SDS011;63664;44.868;40.600;2023-02-23T00:42:20;21.90;;;7.65;;
75087;SDS011;63664;44.868;40.600;2023-02-23T00:44:47;12.30;;;6.38;;
75087;SDS011;63664;44.868;40.600;2023-02-23T00:47:14;12.95;;;7.28;;
75087;SDS011;63664;44.868;40.600;2023-02-23T00:49:50;18.98;;;8.15;;
75087;SDS011;63664;44.868;40.600;2023-02-23T00:52:18;29.17;;;10.35;;
75087;SDS011;63664;44.868;40.600;2023-02-23T00:54:44;27.95;;;10.32;;
75087;SDS011;63664;44.868;40.600;2023-02-23T00:57:13;20.55;;;9.15;;
75087;SDS011;63664;44.868;40.600;2023-02-23T00:59:41;24.23;;;10.13;;
75087;SDS011;63664;44.868;40.600;2023-02-23T01:02:10;16.40;;;8.07;;
75087;SDS011;63664;44.868;40.600;2023-02-23T01:04:39;11.88;;;6.40;;
75087;SDS011;63664;44.868;40.600;2023-02-23T01:07:05;12.57;;;7.30;;
75087;SDS011;63664;44.868;40.600;2023-02-23T01:09:31;17.73;;;8.75;;
75087;SDS011;63664;44.868;40.600;2023-02-23T01:11:58;18.52;;;7.35;;
75087;SDS011;63664;44.868;40.600;2023-02-23T01:14:37;14.57;;;7.40;;
75087;SDS011;63664;44.868;40.600;2023-02-23T01:17:05;20.30;;;8.93;;
75087;SDS011;63664;44.868;40.600;2023-02-23T01:19:32;19.58;;;8.80;;
75087;SDS011;63664;44.868;40.600;2023-02-23T01:22:02;15.80;;;7.90;;
75087;SDS011;63664;44.868;40.600;2023-02-23T01:24:30;19.17;;;8.15;;
75087;SDS011;63664;44.868;40.600;2023-02-23T01:26:57;15.30;;;8.32;;
75087;SDS011;63664;44.868;40.600;2023-02-23T01:29:23;17.30;;;8.45;;
75087;SDS011;63664;44.868;40.600;2023-02-23T01:31:52;16.67;;;8.85;;
75087;SDS011;63664;44.868;40.600;2023-02-23T01:36:49;10.43;;;6.50;;
75087;SDS011;63664;44.868;40.600;2023-02-23T01:39:16;9.68;;;5.97;;
75087;SDS011;63664;44.868;40.600;2023-02-23T01:41:45;12.60;;;5.20;;
75087;SDS011;63664;44.868;40.600;2023-02-23T01:46:40;12.25;;;6.10;;
75087;SDS011;63664;44.868;40.600;2023-02-23T01:49:13;10.60;;;5.93;;
75087;SDS011;63664;44.868;40.600;2023-02-23T01:52:02;10.70;;;5.97;;
75087;SDS011;63664;44.868;40.600;2023-02-23T01:54:39;10.55;;;5.65;;
75087;SDS011;63664;44.868;40.600;2023-02-23T01:57:17;10.40;;;5.38;;
75087;SDS011;63664;44.868;40.600;2023-02-23T01:59:49;9.05;;;5.80;;
75087;SDS011;63664;44.868;40.600;2023-02-23T02:02:16;9.82;;;5.45;;
75087;SDS011;63664;44.868;40.600;2023-02-23T02:04:48;13.40;;;5.53;;
75087;SDS011;63664;44.868;40.600;2023-02-23T02:07:17;11.23;;;5.55;;
75087;SDS011;63664;44.868;40.600;2023-02-23T02:09:52;13.45;;;5.72;;
75087;SDS011;63664;44.868;40.600;2023-02-23T02:12:38;10.55;;;6.25;;
75087;SDS011;63664;44.868;40.600;2023-02-23T02:15:17;12.32;;;5.75;;
75087;SDS011;63664;44.868;40.600;2023-02-23T02:18:08;15.35;;;5.97;;
75087;SDS011;63664;44.868;40.600;2023-02-23T02:32:14;14.68;;;6.63;;
75087;SDS011;63664;44.868;40.600;2023-02-23T02:37:36;9.95;;;5.57;;
75087;SDS011;63664;44.868;40.600;2023-02-23T02:48:34;11.75;;;5.93;;
75087;SDS011;63664;44.868;40.600;2023-02-23T02:51:05;14.82;;;5.97;;
75087;SDS011;63664;44.868;40.600;2023-02-23T02:53:44;9.70;;;5.75;;
75087;SDS011;63664;44.868;40.600;2023-02-23T02:56:20;11.70;;;5.90;;
75087;SDS011;63664;44.868;40.600;2023-02-23T02:58:48;11.32;;;5.07;;
75087;SDS011;63664;44.868;40.600;2023-02-23T03:01:18;13.30;;;5.72;;
75087;SDS011;63664;44.868;40.600;2023-02-23T03:04:18;12.40;;;6.47;;
75087;SDS011;63664;44.868;40.600;2023-02-23T03:10:35;10.30;;;5.57;;
75087;SDS011;63664;44.868;40.600;2023-02-23T03:16:39;15.52;;;6.22;;
75087;SDS011;63664;44.868;40.600;2023-02-23T03:19:35;15.93;;;6.97;;
75087;SDS011;63664;44.868;40.600;2023-02-23T03:22:37;12.52;;;6.53;;
75087;SDS011;63664;44.868;40.600;2023-02-23T03:25:45;11.07;;;6.10;;
75087;SDS011;63664;44.868;40.600;2023-02-23T03:29:08;13.07;;;5.90;;
75087;SDS011;63664;44.868;40.600;2023-02-23T03:32:08;12.93;;;6.28;;
75087;SDS011;63664;44.868;40.600;2023-02-23T03:38:23;10.00;;;6.30;;
75087;SDS011;63664;44.868;40.600;2023-02-23T03:41:10;12.90;;;6.47;;
75087;SDS011;63664;44.868;40.600;2023-02-23T03:43:59;10.70;;;6.20;;
75087;SDS011;63664;44.868;40.600;2023-02-23T03:46:54;10.38;;;6.53;;
75087;SDS011;63664;44.868;40.600;2023-02-23T03:49:46;13.27;;;5.50;;
75087;SDS011;63664;44.868;40.600;2023-02-23T03:52:45;15.43;;;7.55;;
75087;SDS011;63664;44.868;40.600;2023-02-23T03:55:38;13.82;;;7.05;;
75087;SDS011;63664;44.868;40.600;2023-02-23T03:58:27;14.35;;;7.43;;
75087;SDS011;63664;44.868;40.600;2023-02-23T04:01:19;13.88;;;7.03;;
75087;SDS011;63664;44.868;40.600;2023-02-23T04:04:09;13.32;;;6.28;;
75087;SDS011;63664;44.868;40.600;2023-02-23T04:06:58;13.65;;;6.13;;
75087;SDS011;63664;44.868;40.600;2023-02-23T04:09:45;12.88;;;6.43;;
75087;SDS011;63664;44.868;40.600;2023-02-23T04:12:44;15.60;;;5.70;;
75087;SDS011;63664;44.868;40.600;2023-02-23T04:15:45;13.30;;;6.70;;
75087;SDS011;63664;44.868;40.600;2023-02-23T04:18:14;16.83;;;6.90;;
75087;SDS011;63664;44.868;40.600;2023-02-23T04:20:49;12.85;;;5.85;;
75087;SDS011;63664;44.868;40.600;2023-02-23T04:23:18;14.07;;;6.75;;
75087;SDS011;63664;44.868;40.600;2023-02-23T04:25:44;16.42;;;8.02;;
75087;SDS011;63664;44.868;40.600;2023-02-23T04:28:14;19.55;;;7.68;;
75087;SDS011;63664;44.868;40.600;2023-02-23T04:30:43;13.85;;;7.40;;
75087;SDS011;63664;44.868;40.600;2023-02-23T04:33:12;16.05;;;8.05;;
75087;SDS011;63664;44.868;40.600;2023-02-23T04:35:41;17.95;;;8.13;;
75087;SDS011;63664;44.868;40.600;2023-02-23T04:38:08;13.48;;;6.28;;
75087;SDS011;63664;44.868;40.600;2023-02-23T04:40:34;17.35;;;8.68;;
75087;SDS011;63664;44.868;40.600;2023-02-23T04:43:00;18.13;;;8.52;;
75087;SDS011;63664;44.868;40.600;2023-02-23T04:45:30;20.17;;;8.55;;
75087;SDS011;63664;44.868;40.600;2023-02-23T04:48:01;13.93;;;7.15;;
75087;SDS011;63664;44.868;40.600;2023-02-23T04:50:32;13.23;;;5.88;;
75087;SDS011;63664;44.868;40.600;2023-02-23T04:53:01;14.95;;;7.05;;
75087;SDS011;63664;44.868;40.600;2023-02-23T04:55:30;14.90;;;8.13;;
75087;SDS011;63664;44.868;40.600;2023-02-23T04:57:57;16.50;;;7.53;;
75087;SDS011;63664;44.868;40.600;2023-02-23T05:00:26;22.67;;;9.23;;
75087;SDS011;63664;44.868;40.600;2023-02-23T05:02:54;15.50;;;7.22;;
75087;SDS011;63664;44.868;40.600;2023-02-23T05:05:21;19.77;;;8.38;;
75087;SDS011;63664;44.868;40.600;2023-02-23T05:07:47;13.45;;;6.53;;
75087;SDS011;63664;44.868;40.600;2023-02-23T05:10:14;21.20;;;9.98;;
75087;SDS011;63664;44.868;40.600;2023-02-23T05:12:42;21.25;;;9.50;;
75087;SDS011;63664;44.868;40.600;2023-02-23T05:15:09;20.58;;;9.70;;
75087;SDS011;63664;44.868;40.600;2023-02-23T05:17:36;16.23;;;6.82;;
75087;SDS011;63664;44.868;40.600;2023-02-23T05:20:07;25.25;;;8.50;;
75087;SDS011;63664;44.868;40.600;2023-02-23T05:22:40;11.38;;;6.55;;
75087;SDS011;63664;44.868;40.600;2023-02-23T05:25:06;18.90;;;9.93;;
75087;SDS011;63664;44.868;40.600;2023-02-23T05:27:41;20.25;;;9.10;;
75087;SDS011;63664;44.868;40.600;2023-02-23T05:30:10;14.93;;;6.88;;
75087;SDS011;63664;44.868;40.600;2023-02-23T05:32:36;18.25;;;8.40;;
75087;SDS011;63664;44.868;40.600;2023-02-23T05:35:08;18.38;;;9.27;;
75087;SDS011;63664;44.868;40.600;2023-02-23T05:37:37;24.48;;;9.52;;
75087;SDS011;63664;44.868;40.600;2023-02-23T05:40:08;19.10;;;8.95;;
75087;SDS011;63664;44.868;40.600;2023-02-23T05:42:39;9.65;;;4.78;;
75087;SDS011;63664;44.868;40.600;2023-02-23T05:45:05;17.73;;;9.90;;
75087;SDS011;63664;44.868;40.600;2023-02-23T05:47:32;23.98;;;10.05;;
75087;SDS011;63664;44.868;40.600;2023-02-23T05:50:04;17.25;;;8.32;;
75087;SDS011;63664;44.868;40.600;2023-02-23T05:52:38;20.13;;;9.13;;
75087;SDS011;63664;44.868;40.600;2023-02-23T05:55:07;14.55;;;7.70;;
75087;SDS011;63664;44.868;40.600;2023-02-23T05:57:36;17.23;;;9.73;;
75087;SDS011;63664;44.868;40.600;2023-02-23T06:00:04;23.98;;;9.57;;
75087;SDS011;63664;44.868;40.600;2023-02-23T06:02:36;16.75;;;6.05;;
75087;SDS011;63664;44.868;40.600;2023-02-23T06:05:03;15.93;;;7.82;;
75087;SDS011;63664;44.868;40.600;2023-02-23T06:07:30;17.52;;;7.68;;
75087;SDS011;63664;44.868;40.600;2023-02-23T06:09:59;14.13;;;6.25;;
75087;SDS011;63664;44.868;40.600;2023-02-23T06:12:25;11.73;;;5.43;;
75087;SDS011;63664;44.868;40.600;2023-02-23T06:14:51;10.48;;;5.00;;
75087;SDS011;63664;44.868;40.600;2023-02-23T06:17:17;18.58;;;8.02;;
75087;SDS011;63664;44.868;40.600;2023-02-23T06:19:44;14.18;;;7.40;;
75087;SDS011;63664;44.868;40.600;2023-02-23T06:22:10;17.50;;;6.88;;
75087;SDS011;63664;44.868;40.600;2023-02-23T06:24:38;14.80;;;6.38;;
75087;SDS011;63664;44.868;40.600;2023-02-23T06:27:07;26.25;;;5.50;;
75087;SDS011;63664;44.868;40.600;2023-02-23T06:29:33;8.23;;;4.05;;
75087;SDS011;63664;44.868;40.600;2023-02-23T06:32:02;17.30;;;4.07;;
75087;SDS011;63664;44.868;40.600;2023-02-23T06:34:28;7.05;;;3.90;;
75087;SDS011;63664;44.868;40.600;2023-02-23T06:36:55;13.85;;;6.82;;
75087;SDS011;63664;44.868;40.600;2023-02-23T06:39:22;12.90;;;4.05;;
75087;SDS011;63664;44.868;40.600;2023-02-23T06:41:51;8.15;;;3.67;;
75087;SDS011;63664;44.868;40.600;2023-02-23T06:44:19;6.75;;;3.25;;
75087;SDS011;63664;44.868;40.600;2023-02-23T06:46:47;17.00;;;5.70;;
75087;SDS011;63664;44.868;40.600;2023-02-23T06:49:13;7.05;;;3.67;;
75087;SDS011;63664;44.868;40.600;2023-02-23T06:51:40;10.25;;;5.13;;
75087;SDS011;63664;44.868;40.600;2023-02-23T06:54:14;6.43;;;3.92;;
75087;SDS011;63664;44.868;40.600;2023-02-23T06:56:43;16.83;;;6.47;;
75087;SDS011;63664;44.868;40.600;2023-02-23T06:59:12;10.57;;;5.95;;
75087;SDS011;63664;44.868;40.600;2023-02-23T07:01:40;10.02;;;5.90;;
75087;SDS011;63664;44.868;40.600;2023-02-23T07:04:09;12.45;;;6.03;;
75087;SDS011;63664;44.868;40.600;2023-02-23T07:06:38;15.93;;;6.75;;
75087;SDS011;63664;44.868;40.600;2023-02-23T07:09:07;12.00;;;5.50;;
75087;SDS011;63664;44.868;40.600;2023-02-23T07:11:35;14.20;;;6.22;;
75087;SDS011;63664;44.868;40.600;2023-02-23T07:14:02;18.27;;;7.18;;
75087;SDS011;63664;44.868;40.600;2023-02-23T07:16:28;7.28;;;4.38;;
75087;SDS011;63664;44.868;40.600;2023-02-23T07:18:56;20.15;;;8.95;;
75087;SDS011;63664;44.868;40.600;2023-02-23T07:21:23;10.55;;;6.18;;
75087;SDS011;63664;44.868;40.600;2023-02-23T07:23:49;7.05;;;4.82;;
75087;SDS011;63664;44.868;40.600;2023-02-23T07:26:15;16.15;;;8.60;;
75087;SDS011;63664;44.868;40.600;2023-02-23T07:28:43;16.08;;;7.50;;
75087;SDS011;63664;44.868;40.600;2023-02-23T07:31:09;12.65;;;5.53;;
75087;SDS011;63664;44.868;40.600;2023-02-23T07:33:38;16.15;;;6.53;;
75087;SDS011;63664;44.868;40.600;2023-02-23T07:36:04;19.40;;;8.30;;
75087;SDS011;63664;44.868;40.600;2023-02-23T07:38:31;11.75;;;6.50;;
75087;SDS011;63664;44.868;40.600;2023-02-23T07:40:58;10.55;;;5.78;;
75087;SDS011;63664;44.868;40.600;2023-02-23T07:43:28;15.52;;;6.30;;
75087;SDS011;63664;44.868;40.600;2023-02-23T07:46:02;5.97;;;3.72;;
75087;SDS011;63664;44.868;40.600;2023-02-23T07:48:31;10.00;;;5.00;;
75087;SDS011;63664;44.868;40.600;2023-02-23T07:50:57;5.90;;;3.03;;
75087;SDS011;63664;44.868;40.600;2023-02-23T07:53:24;10.10;;;4.38;;
75087;SDS011;63664;44.868;40.600;2023-02-23T07:55:58;17.17;;;7.30;;
75087;SDS011;63664;44.868;40.600;2023-02-23T07:58:26;13.05;;;6.07;;
75087;SDS011;63664;44.868;40.600;2023-02-23T08:00:55;12.25;;;5.97;;
75087;SDS011;63664;44.868;40.600;2023-02-23T08:03:26;10.43;;;5.25;;
75087;SDS011;63664;44.868;40.600;2023-02-23T08:05:52;5.80;;;3.30;;
75087;SDS011;63664;44.868;40.600;2023-02-23T08:08:22;13.82;;;6.63;;
75087;SDS011;63664;44.868;40.600;2023-02-23T08:10:48;12.98;;;6.20;;
75087;SDS011;63664;44.868;40.600;2023-02-23T08:13:27;14.70;;;7.05;;
75087;SDS011;63664;44.868;40.600;2023-02-23T08:15:54;12.85;;;5.72;;
75087;SDS011;63664;44.868;40.600;2023-02-23T08:18:20;15.35;;;6.30;;
75087;SDS011;63664;44.868;40.600;2023-02-23T08:20:47;13.13;;;5.57;;
75087;SDS011;63664;44.868;40.600;2023-02-23T08:23:13;12.38;;;6.30;;
75087;SDS011;63664;44.868;40.600;2023-02-23T08:25:41;12.80;;;6.60;;
75087;SDS011;63664;44.868;40.600;2023-02-23T08:28:10;8.93;;;5.35;;
75087;SDS011;63664;44.868;40.600;2023-02-23T08:30:37;9.85;;;5.18;;
75087;SDS011;63664;44.868;40.600;2023-02-23T08:33:07;11.40;;;5.38;;
75087;SDS011;63664;44.868;40.600;2023-02-23T08:35:36;15.32;;;6.65;;
75087;SDS011;63664;44.868;40.600;2023-02-23T08:38:06;17.02;;;7.22;;
75087;SDS011;63664;44.868;40.600;2023-02-23T08:40:32;12.23;;;6.00;;
75087;SDS011;63664;44.868;40.600;2023-02-23T08:42:58;12.50;;;6.40;;
75087;SDS011;63664;44.868;40.600;2023-02-23T08:45:27;15.07;;;6.50;;
75087;SDS011;63664;44.868;40.600;2023-02-23T08:47:56;12.27;;;6.38;;
75087;SDS011;63664;44.868;40.600;2023-02-23T08:50:25;10.43;;;5.22;;
75087;SDS011;63664;44.868;40.600;2023-02-23T08:52:51;9.60;;;6.20;;
75087;SDS011;63664;44.868;40.600;2023-02-23T08:55:19;13.57;;;6.90;;
75087;SDS011;63664;44.868;40.600;2023-02-23T08:57:48;11.25;;;6.55;;
75087;SDS011;63664;44.868;40.600;2023-02-23T09:00:18;12.57;;;5.78;;
75087;SDS011;63664;44.868;40.600;2023-02-23T09:02:44;26.00;;;7.72;;
75087;SDS011;63664;44.868;40.600;2023-02-23T09:05:14;13.85;;;6.93;;
75087;SDS011;63664;44.868;40.600;2023-02-23T09:07:44;7.00;;;4.22;;
75087;SDS011;63664;44.868;40.600;2023-02-23T09:10:16;14.88;;;7.18;;
75087;SDS011;63664;44.868;40.600;2023-02-23T09:12:49;13.80;;;7.05;;
75087;SDS011;63664;44.868;40.600;2023-02-23T09:15:16;15.38;;;7.25;;
75087;SDS011;63664;44.868;40.600;2023-02-23T09:17:42;14.50;;;6.40;;
75087;SDS011;63664;44.868;40.600;2023-02-23T09:20:09;18.63;;;8.10;;
75087;SDS011;63664;44.868;40.600;2023-02-23T09:22:39;13.30;;;6.47;;
75087;SDS011;63664;44.868;40.600;2023-02-23T09:25:14;9.02;;;4.85;;
75087;SDS011;63664;44.868;40.600;2023-02-23T09:27:44;14.43;;;5.80;;
75087;SDS011;63664;44.868;40.600;2023-02-23T09:30:11;13.73;;;7.13;;
75087;SDS011;63664;44.868;40.600;2023-02-23T09:32:45;16.27;;;7.03;;
75087;SDS011;63664;44.868;40.600;2023-02-23T09:35:13;11.57;;;5.88;;
75087;SDS011;63664;44.868;40.600;2023-02-23T09:37:49;15.07;;;7.38;;
75087;SDS011;63664;44.868;40.600;2023-02-23T09:40:22;11.95;;;6.78;;
75087;SDS011;63664;44.868;40.600;2023-02-23T09:43:01;12.65;;;6.85;;
75087;SDS011;63664;44.868;40.600;2023-02-23T09:45:39;15.38;;;7.68;;
75087;SDS011;63664;44.868;40.600;2023-02-23T09:48:22;9.75;;;5.10;;
75087;SDS011;63664;44.868;40.600;2023-02-23T09:50:56;9.75;;;5.40;;
75087;SDS011;63664;44.868;40.600;2023-02-23T09:56:12;8.13;;;4.30;;
75087;SDS011;63664;44.868;40.600;2023-02-23T09:58:57;14.15;;;5.97;;
75087;SDS011;63664;44.868;40.600;2023-02-23T10:04:15;12.68;;;6.18;;
75087;SDS011;63664;44.868;40.600;2023-02-23T10:12:12;8.10;;;4.45;;
75087;SDS011;63664;44.868;40.600;2023-02-23T10:18:15;13.02;;;5.65;;
75087;SDS011;63664;44.868;40.600;2023-02-23T10:23:29;10.77;;;4.55;;
75087;SDS011;63664;44.868;40.600;2023-02-23T10:26:10;12.77;;;5.60;;
75087;SDS011;63664;44.868;40.600;2023-02-23T10:28:42;13.35;;;5.47;;
75087;SDS011;63664;44.868;40.600;2023-02-23T10:31:22;13.88;;;5.28;;
75087;SDS011;63664;44.868;40.600;2023-02-23T10:33:52;8.95;;;4.68;;
75087;SDS011;63664;44.868;40.600;2023-02-23T10:39:06;11.65;;;5.93;;
75087;SDS011;63664;44.868;40.600;2023-02-23T10:41:36;10.65;;;4.50;;
75087;SDS011;63664;44.868;40.600;2023-02-23T10:44:04;14.32;;;6.47;;
75087;SDS011;63664;44.868;40.600;2023-02-23T10:46:43;12.45;;;6.05;;
75087;SDS011;63664;44.868;40.600;2023-02-23T10:49:19;12.18;;;5.93;;
75087;SDS011;63664;44.868;40.600;2023-02-23T10:51:49;11.90;;;5.20;;
75087;SDS011;63664;44.868;40.600;2023-02-23T10:54:40;8.43;;;5.30;;
75087;SDS011;63664;44.868;40.600;2023-02-23T10:57:11;7.63;;;3.63;;
75087;SDS011;63664;44.868;40.600;2023-02-23T11:02:54;9.80;;;5.95;;
75087;SDS011;63664;44.868;40.600;2023-02-23T11:05:28;14.50;;;6.95;;
75087;SDS011;63664;44.868;40.600;2023-02-23T11:13:46;12.98;;;5.93;;
75087;SDS011;63664;44.868;40.600;2023-02-23T11:16:18;7.80;;;4.35;;
75087;SDS011;63664;44.868;40.600;2023-02-23T11:18:51;5.60;;;3.45;;
75087;SDS011;63664;44.868;40.600;2023-02-23T11:21:25;11.70;;;6.38;;
75087;SDS011;63664;44.868;40.600;2023-02-23T11:24:04;8.50;;;4.40;;
75087;SDS011;63664;44.868;40.600;2023-02-23T11:26:39;12.55;;;5.57;;
75087;SDS011;63664;44.868;40.600;2023-02-23T11:29:50;14.27;;;5.90;;
75087;SDS011;63664;44.868;40.600;2023-02-23T11:32:12;10.05;;;5.03;;
75087;SDS011;63664;44.868;40.600;2023-02-23T11:34:46;8.50;;;4.43;;
75087;SDS011;63664;44.868;40.600;2023-02-23T11:40:00;9.25;;;4.78;;
75087;SDS011;63664;44.868;40.600;2023-02-23T11:42:28;9.25;;;4.25;;
75087;SDS011;63664;44.868;40.600;2023-02-23T11:45:03;14.73;;;5.13;;
75087;SDS011;63664;44.868;40.600;2023-02-23T11:47:43;3.35;;;1.95;;
75087;SDS011;63664;44.868;40.600;2023-02-23T11:53:02;11.55;;;5.20;;
75087;SDS011;63664;44.868;40.600;2023-02-23T11:55:50;7.53;;;4.75;;
75087;SDS011;63664;44.868;40.600;2023-02-23T11:58:37;12.40;;;6.30;;
75087;SDS011;63664;44.868;40.600;2023-02-23T12:01:11;12.68;;;5.80;;
75087;SDS011;63664;44.868;40.600;2023-02-23T12:03:50;10.25;;;4.57;;
75087;SDS011;63664;44.868;40.600;2023-02-23T12:11:56;10.90;;;5.85;;
75087;SDS011;63664;44.868;40.600;2023-02-23T12:17:13;12.45;;;5.45;;
75087;SDS011;63664;44.868;40.600;2023-02-23T12:20:01;8.32;;;4.28;;
75087;SDS011;63664;44.868;40.600;2023-02-23T12:23:00;10.52;;;5.57;;
75087;SDS011;63664;44.868;40.600;2023-02-23T12:28:39;11.35;;;5.75;;
75087;SDS011;63664;44.868;40.600;2023-02-23T12:34:21;11.13;;;5.78;;
75087;SDS011;63664;44.868;40.600;2023-02-23T12:37:09;8.80;;;4.63;;
75087;SDS011;63664;44.868;40.600;2023-02-23T12:39:49;6.28;;;3.95;;
75087;SDS011;63664;44.868;40.600;2023-02-23T12:45:12;10.65;;;5.22;;
75087;SDS011;63664;44.868;40.600;2023-02-23T12:50:44;11.20;;;5.03;;
75087;SDS011;63664;44.868;40.600;2023-02-23T12:53:22;8.65;;;3.97;;
75087;SDS011;63664;44.868;40.600;2023-02-23T13:01:48;9.75;;;5.18;;
75087;SDS011;63664;44.868;40.600;2023-02-23T13:04:24;11.05;;;5.03;;
75087;SDS011;63664;44.868;40.600;2023-02-23T13:16:21;9.13;;;5.13;;
75087;SDS011;63664;44.868;40.600;2023-02-23T13:22:19;6.03;;;3.55;;
75087;SDS011;63664;44.868;40.600;2023-02-23T13:25:02;9.10;;;4.57;;
75087;SDS011;63664;44.868;40.600;2023-02-23T13:27:46;8.55;;;4.32;;
75087;SDS011;63664;44.868;40.600;2023-02-23T13:30:21;7.97;;;5.07;;
75087;SDS011;63664;44.868;40.600;2023-02-23T13:32:50;10.80;;;4.63;;
75087;SDS011;63664;44.868;40.600;2023-02-23T13:35:19;8.65;;;4.53;;
75087;SDS011;63664;44.868;40.600;2023-02-23T13:38:21;7.53;;;3.80;;
75087;SDS011;63664;44.868;40.600;2023-02-23T13:40:49;9.88;;;4.22;;
75087;SDS011;63664;44.868;40.600;2023-02-23T13:43:29;9.75;;;4.72;;
75087;SDS011;63664;44.868;40.600;2023-02-23T13:56:46;9.25;;;4.72;;
75087;SDS011;63664;44.868;40.600;2023-02-23T13:59:20;13.32;;;5.97;;
75087;SDS011;63664;44.868;40.600;2023-02-23T14:01:51;12.13;;;5.60;;
75087;SDS011;63664;44.868;40.600;2023-02-23T14:04:23;15.82;;;6.40;;
75087;SDS011;63664;44.868;40.600;2023-02-23T14:12:42;10.20;;;4.72;;
75087;SDS011;63664;44.868;40.600;2023-02-23T14:15:45;12.55;;;5.10;;
75087;SDS011;63664;44.868;40.600;2023-02-23T14:20:48;12.52;;;5.38;;
75087;SDS011;63664;44.868;40.600;2023-02-23T14:31:01;9.80;;;3.58;;
75087;SDS011;63664;44.868;40.600;2023-02-23T14:36:28;10.75;;;5.03;;
75087;SDS011;63664;44.868;40.600;2023-02-23T14:39:06;10.80;;;5.25;;
75087;SDS011;63664;44.868;40.600;2023-02-23T14:41:57;12.77;;;5.10;;
75087;SDS011;63664;44.868;40.600;2023-02-23T14:44:34;8.38;;;4.05;;
75087;SDS011;63664;44.868;40.600;2023-02-23T14:47:11;26.20;;;7.22;;
75087;SDS011;63664;44.868;40.600;2023-02-23T14:49:46;22.15;;;8.43;;
75087;SDS011;63664;44.868;40.600;2023-02-23T14:55:05;22.05;;;6.38;;
75087;SDS011;63664;44.868;40.600;2023-02-23T15:00:27;7.25;;;3.60;;
75087;SDS011;63664;44.868;40.600;2023-02-23T15:02:59;13.25;;;4.45;;
75087;SDS011;63664;44.868;40.600;2023-02-23T15:08:03;11.30;;;5.15;;
75087;SDS011;63664;44.868;40.600;2023-02-23T15:10:38;11.48;;;5.80;;
75087;SDS011;63664;44.868;40.600;2023-02-23T15:13:09;10.32;;;4.47;;
75087;SDS011;63664;44.868;40.600;2023-02-23T15:15:46;13.93;;;4.63;;
75087;SDS011;63664;44.868;40.600;2023-02-23T15:18:27;9.70;;;4.10;;
75087;SDS011;63664;44.868;40.600;2023-02-23T15:21:20;10.70;;;4.38;;
75087;SDS011;63664;44.868;40.600;2023-02-23T15:23:49;12.88;;;6.38;;
75087;SDS011;63664;44.868;40.600;2023-02-23T15:26:18;6.47;;;3.60;;
75087;SDS011;63664;44.868;40.600;2023-02-23T15:31:35;9.98;;;4.78;;
75087;SDS011;63664;44.868;40.600;2023-02-23T15:34:09;11.25;;;5.05;;
75087;SDS011;63664;44.868;40.600;2023-02-23T15:39:05;8.38;;;5.15;;
75087;SDS011;63664;44.868;40.600;2023-02-23T15:41:38;12.88;;;6.43;;
75087;SDS011;63664;44.868;40.600;2023-02-23T15:44:10;11.15;;;5.30;;
75087;SDS011;63664;44.868;40.600;2023-02-23T15:46:39;11.30;;;4.90;;
75087;SDS011;63664;44.868;40.600;2023-02-23T15:49:10;14.82;;;7.63;;
75087;SDS011;63664;44.868;40.600;2023-02-23T15:51:47;12.30;;;5.55;;
75087;SDS011;63664;44.868;40.600;2023-02-23T15:54:29;12.95;;;5.00;;
75087;SDS011;63664;44.868;40.600;2023-02-23T15:57:06;20.58;;;7.30;;
75087;SDS011;63664;44.868;40.600;2023-02-23T15:59:45;20.48;;;8.20;;
75087;SDS011;63664;44.868;40.600;2023-02-23T16:02:15;16.20;;;6.95;;
75087;SDS011;63664;44.868;40.600;2023-02-23T16:04:46;17.85;;;6.43;;
75087;SDS011;63664;44.868;40.600;2023-02-23T16:10:02;24.83;;;9.88;;
75087;SDS011;63664;44.868;40.600;2023-02-23T16:12:43;20.33;;;9.18;;
75087;SDS011;63664;44.868;40.600;2023-02-23T16:15:26;21.23;;;9.07;;
75087;SDS011;63664;44.868;40.600;2023-02-23T16:18:04;17.25;;;8.13;;
75087;SDS011;63664;44.868;40.600;2023-02-23T16:20:42;17.73;;;8.05;;
75087;SDS011;63664;44.868;40.600;2023-02-23T16:23:32;10.70;;;5.78;;
75087;SDS011;63664;44.868;40.600;2023-02-23T16:26:15;22.17;;;8.45;;
75087;SDS011;63664;44.868;40.600;2023-02-23T16:28:59;23.50;;;9.88;;
75087;SDS011;63664;44.868;40.600;2023-02-23T16:31:42;41.30;;;15.55;;
75087;SDS011;63664;44.868;40.600;2023-02-23T16:34:18;34.85;;;15.10;;
75087;SDS011;63664;44.868;40.600;2023-02-23T16:36:59;68.80;;;25.38;;
75087;SDS011;63664;44.868;40.600;2023-02-23T16:39:31;28.35;;;10.52;;
75087;SDS011;63664;44.868;40.600;2023-02-23T16:41:59;33.65;;;15.98;;
75087;SDS011;63664;44.868;40.600;2023-02-23T16:44:26;17.23;;;8.57;;
75087;SDS011;63664;44.868;40.600;2023-02-23T16:49:27;26.00;;;10.27;;
75087;SDS011;63664;44.868;40.600;2023-02-23T16:51:57;16.85;;;7.18;;
75087;SDS011;63664;44.868;40.600;2023-02-23T16:54:28;18.23;;;8.75;;
75087;SDS011;63664;44.868;40.600;2023-02-23T16:56:54;30.17;;;9.60;;
75087;SDS011;63664;44.868;40.600;2023-02-23T16:59:21;17.52;;;8.70;;
75087;SDS011;63664;44.868;40.600;2023-02-23T17:01:48;20.25;;;8.05;;
75087;SDS011;63664;44.868;40.600;2023-02-23T17:04:19;14.38;;;6.45;;
75087;SDS011;63664;44.868;40.600;2023-02-23T17:06:46;17.80;;;8.20;;
75087;SDS011;63664;44.868;40.600;2023-02-23T17:09:20;13.90;;;7.05;;
75087;SDS011;63664;44.868;40.600;2023-02-23T17:11:52;20.83;;;9.27;;
75087;SDS011;63664;44.868;40.600;2023-02-23T17:14:26;17.02;;;8.57;;
75087;SDS011;63664;44.868;40.600;2023-02-23T17:16:52;15.80;;;7.03;;
75087;SDS011;63664;44.868;40.600;2023-02-23T17:19:19;17.42;;;8.68;;
75087;SDS011;63664;44.868;40.600;2023-02-23T17:21:48;17.55;;;7.63;;
75087;SDS011;63664;44.868;40.600;2023-02-23T17:24:18;21.92;;;8.82;;
75087;SDS011;63664;44.868;40.600;2023-02-23T17:26:51;15.23;;;7.32;;
75087;SDS011;63664;44.868;40.600;2023-02-23T17:29:18;15.90;;;7.63;;
75087;SDS011;63664;44.868;40.600;2023-02-23T17:34:20;16.23;;;7.88;;
75087;SDS011;63664;44.868;40.600;2023-02-23T17:36:48;22.90;;;9.43;;
75087;SDS011;63664;44.868;40.600;2023-02-23T17:39:17;24.58;;;8.30;;
75087;SDS011;63664;44.868;40.600;2023-02-23T17:41:46;19.10;;;6.78;;